Onweer radar Meer informatie blitzortung!


Regen radar Meer informatie rain snow radar


Andere websites:

Onze vorige site

Leuven Template


METAR rapporten vliegvelden

   
EHGG - Leeuwarden
Gewijzigd: 03-12-2022 20:55
Bewolking  
Bewolking  
   Wind: ONO 22.2 km/h
Wind: ONO 22.2 km/h
Temperatuur: 1°C
Voelt als: -4°C
Dauwpunt: -2°C
Vochtigheid: 81%
Barometer: 1021 hPa
Bewolking: Bewolking
Zicht: meer dan 10 km
Bewolking: Bewolking 2000 ft
EHGG 031955Z AUTO 07012KT 030V140 9999 OVC020 01/M02 Q1021 NOSIG
EHGG - Terschelling
Gewijzigd: 03-12-2022 20:55
Bewolking  
Bewolking  
   Wind: ONO 22.2 km/h
Wind: ONO 22.2 km/h
Temperatuur: 1°C
Voelt als: -4°C
Dauwpunt: -2°C
Vochtigheid: 81%
Barometer: 1021 hPa
Bewolking: Bewolking
Zicht: meer dan 10 km
Bewolking: Bewolking 2000 ft
EHGG 031955Z AUTO 07012KT 030V140 9999 OVC020 01/M02 Q1021 NOSIG
EHAM - Amsterdam
Gewijzigd: 03-12-2022 20:55
Grotendeels bewolkt  
Grotendeels bewolkt  
   Wind: Oosten 16.7 km/h
Wind: Oosten 16.7 km/h
Temperatuur: 1°C
Voelt als: -3°C
Dauwpunt: -2°C
Vochtigheid: 81%
Barometer: 1020 hPa
Bewolking: Grotendeels bewolkt
Zicht: 9 km
Bewolking: Grotendeels bewolkt 1500 ft
EHAM 031955Z 08009KT 050V110 9000 BKN015 01/M02 Q1020 NOSIG
EHBK - Maastricht
Gewijzigd: 03-12-2022 20:55
Bewolking  
Bewolking  
   Wind: ONO 13 km/h
Wind: ONO 13 km/h
Temperatuur: 1°C
Voelt als: -3°C
Dauwpunt: -1°C
Vochtigheid: 87%
Barometer: 1017 hPa
Bewolking: Bewolking
Zicht: meer dan 10 km
Bewolking: Gedeeltelijk bewolkt 1400 ft,
Bewolking 1600 ft
EHBK 031955Z AUTO 06007KT 020V090 9999 SCT014 OVC016 01/M01 Q1017 NOSIG
  

Script ontwikkeld door  Saratoga-weather.org Aangepast voor de template door  Weerstation Leuven

U vindt ons ook hier:

UK Metoffice

European Weather Network

Weather Underground

AWEKAS

Apparatuur in gebruik:

Weerstation
Davis VP2

Weerprogramma
Cumulus

Davis VP2

Cumulus